Time;durP1;ratioP1;P1;durP2;ratioP2;P2;SDS_P1;SDS_P2;PMS_P1;PMS_P2;Temp;Humidity;BMP_temperature;BMP_pressure;BME280_temperature;BME280_humidity;BME280_pressure;Samples;Min_cycle;Max_cycle;Signal;HPM_P1;HPM_P2
2023/09/28 00:02:23;;;;;;;11.80;5.60;;;;;;;15.16;100.00;100849.16;5589370;31;34079;-68
2023/09/28 00:05:27;;;;;;;13.38;5.60;;;;;;;15.25;100.00;100860.56;5589437;31;33758;-68
2023/09/28 00:08:32;;;;;;;12.57;5.95;;;;;;;15.24;100.00;100866.97;5589247;31;34002;-68
2023/09/28 00:11:35;;;;;;;14.73;6.12;;;;;;;15.29;100.00;100867.22;5589248;31;34322;-68
2023/09/28 00:14:38;;;;;;;11.82;6.20;;;;;;;15.33;100.00;100857.81;5589343;31;34004;-67
2023/09/28 00:17:42;;;;;;;13.07;5.85;;;;;;;15.39;100.00;100859.75;5589127;31;34086;-68
2023/09/28 00:20:45;;;;;;;10.82;5.87;;;;;;;15.32;100.00;100866.84;5589199;31;34569;-68
2023/09/28 00:23:49;;;;;;;15.27;5.93;;;;;;;15.23;100.00;100854.59;5589084;31;33753;-68
2023/09/28 00:26:52;;;;;;;13.77;6.43;;;;;;;15.20;100.00;100861.13;5589063;31;33809;-68
2023/09/28 00:29:56;;;;;;;11.40;6.57;;;;;;;15.32;100.00;100856.16;5589037;31;34589;-68
2023/09/28 00:32:59;;;;;;;13.75;6.12;;;;;;;15.35;100.00;100849.59;5588963;31;33780;-68
2023/09/28 00:36:02;;;;;;;10.70;5.97;;;;;;;15.27;100.00;100855.88;5588945;31;33900;-68
2023/09/28 00:39:06;;;;;;;16.30;6.10;;;;;;;15.37;100.00;100853.75;5575130;31;34135;-68
2023/09/28 00:42:10;;;;;;;12.00;6.05;;;;;;;15.30;100.00;100868.88;5589086;31;34556;-68
2023/09/28 00:45:13;;;;;;;15.63;6.15;;;;;;;15.16;100.00;100865.19;5588753;31;33854;-69
2023/09/28 00:48:15;;;;;;;12.82;5.70;;;;;;;15.17;100.00;100869.53;5588855;31;33766;-69
2023/09/28 00:51:19;;;;;;;11.40;5.87;;;;;;;15.07;100.00;100868.97;5589080;31;34228;-68
2023/09/28 00:54:23;;;;;;;21.17;6.47;;;;;;;15.10;100.00;100865.13;5588677;31;33813;-68
2023/09/28 00:57:27;;;;;;;12.37;6.20;;;;;;;15.21;100.00;100861.97;5575275;31;34525;-68
2023/09/28 01:00:34;;;;;;;12.23;6.45;;;;;;;15.16;100.00;100865.19;5591016;31;34409;-68
2023/09/28 01:03:37;;;;;;;13.07;6.30;;;;;;;15.07;100.00;100865.47;5590955;31;34940;-69
2023/09/28 01:06:41;;;;;;;16.92;7.05;;;;;;;14.99;100.00;100862.91;5590921;31;33905;-68
2023/09/28 01:09:45;;;;;;;11.23;6.32;;;;;;;14.91;100.00;100868.34;5590796;31;35102;-68
2023/09/28 01:12:48;;;;;;;13.77;6.85;;;;;;;14.78;100.00;100864.47;5590940;31;33964;-68
2023/09/28 01:15:51;;;;;;;9.73;6.25;;;;;;;14.69;100.00;100860.22;5590756;31;34101;-68
2023/09/28 01:18:54;;;;;;;9.50;6.40;;;;;;;14.77;100.00;100856.63;5590804;31;34111;-68
2023/09/28 01:21:59;;;;;;;14.15;6.50;;;;;;;14.79;100.00;100852.78;5590854;31;33798;-68
2023/09/28 01:25:03;;;;;;;18.12;6.60;;;;;;;14.84;100.00;100862.06;5590883;31;33941;-68
2023/09/28 01:28:07;;;;;;;14.57;6.45;;;;;;;14.78;100.00;100852.94;5591071;31;34736;-68
2023/09/28 01:31:10;;;;;;;9.85;6.22;;;;;;;14.75;100.00;100856.00;5590724;31;33836;-69
2023/09/28 01:34:13;;;;;;;17.35;6.30;;;;;;;14.68;100.00;100853.22;5576960;31;34576;-69
2023/09/28 01:37:19;;;;;;;12.37;6.62;;;;;;;14.56;100.00;100852.03;5590560;31;33839;-68
2023/09/28 01:40:22;;;;;;;11.30;6.40;;;;;;;14.59;100.00;100858.81;5590507;31;34056;-69
2023/09/28 01:43:25;;;;;;;11.18;6.65;;;;;;;14.60;100.00;100855.16;5590757;31;34489;-69
2023/09/28 01:46:28;;;;;;;12.10;6.30;;;;;;;14.54;100.00;100861.22;5590341;31;33807;-68
2023/09/28 01:49:31;;;;;;;11.98;5.93;;;;;;;14.58;100.00;100867.84;5590641;31;33812;-68
2023/09/28 01:52:34;;;;;;;10.73;6.47;;;;;;;14.52;100.00;100872.09;5590497;31;35452;-69
2023/09/28 01:55:37;;;;;;;10.98;6.50;;;;;;;14.57;100.00;100876.88;5590532;31;34098;-68
2023/09/28 01:58:41;;;;;;;11.45;6.62;;;;;;;14.59;100.00;100880.19;5590904;31;33938;-68
2023/09/28 02:01:44;;;;;;;19.23;6.53;;;;;;;14.56;100.00;100870.72;5590502;31;34421;-68
2023/09/28 02:04:47;;;;;;;12.25;6.32;;;;;;;14.46;100.00;100875.47;5590620;31;33906;-68
2023/09/28 02:07:50;;;;;;;14.27;6.65;;;;;;;14.41;100.00;100877.84;5590202;31;34019;-69
2023/09/28 02:10:55;;;;;;;12.77;6.87;;;;;;;14.24;100.00;100870.94;5590430;31;34674;-68
2023/09/28 02:13:58;;;;;;;11.38;6.50;;;;;;;14.06;100.00;100871.28;5590414;31;34485;-69
2023/09/28 02:17:02;;;;;;;13.85;7.12;;;;;;;13.97;100.00;100868.84;5590337;31;33832;-69
2023/09/28 02:20:09;;;;;;;16.37;7.45;;;;;;;13.92;100.00;100877.37;5577009;31;34847;-68
2023/09/28 02:23:12;;;;;;;11.38;6.78;;;;;;;13.90;100.00;100866.88;5590318;31;33878;-68
2023/09/28 02:26:14;;;;;;;14.55;6.95;;;;;;;13.82;100.00;100871.44;5590157;31;33889;-69
2023/09/28 02:29:17;;;;;;;14.90;7.00;;;;;;;13.75;100.00;100881.97;5576472;31;33844;-68
2023/09/28 02:32:20;;;;;;;12.43;6.90;;;;;;;13.89;100.00;100880.41;5590619;31;33883;-69
2023/09/28 02:35:24;;;;;;;11.73;6.72;;;;;;;13.89;100.00;100875.06;5590228;31;33769;-68
2023/09/28 02:38:28;;;;;;;13.13;6.82;;;;;;;13.80;100.00;100884.94;5590177;31;33956;-69
2023/09/28 02:41:31;;;;;;;11.93;6.55;;;;;;;13.91;100.00;100881.88;5589969;31;34005;-69
2023/09/28 02:44:35;;;;;;;13.10;7.10;;;;;;;14.01;100.00;100883.47;5589917;31;33940;-69
2023/09/28 02:47:43;;;;;;;12.63;7.00;;;;;;;14.11;100.00;100882.25;5590092;31;34855;-69
2023/09/28 02:50:45;;;;;;;13.55;6.82;;;;;;;14.08;100.00;100879.94;5590131;31;34409;-69
2023/09/28 02:53:49;;;;;;;11.05;7.30;;;;;;;14.15;100.00;100886.19;5589951;31;34535;-69
2023/09/28 02:56:53;;;;;;;13.25;7.12;;;;;;;14.14;100.00;100881.88;5589945;31;33752;-68
2023/09/28 02:59:58;;;;;;;11.50;6.80;;;;;;;14.23;100.00;100880.78;5590041;31;34750;-69
2023/09/28 03:03:03;;;;;;;10.52;7.15;;;;;;;14.08;100.00;100881.78;5590252;31;34505;-69
2023/09/28 03:06:06;;;;;;;9.38;6.62;;;;;;;14.05;100.00;100876.78;5589946;31;34013;-69
2023/09/28 03:09:09;;;;;;;12.10;6.60;;;;;;;13.94;100.00;100881.50;5589876;31;33876;-69
2023/09/28 03:12:12;;;;;;;14.85;7.37;;;;;;;13.97;100.00;100876.84;5589697;31;34116;-69
2023/09/28 03:15:16;;;;;;;10.32;7.20;;;;;;;14.02;100.00;100875.31;5576141;31;34360;-69
2023/09/28 03:18:19;;;;;;;15.57;7.97;;;;;;;13.94;100.00;100880.72;5589821;31;33798;-69
2023/09/28 03:21:24;;;;;;;13.25;7.68;;;;;;;13.88;100.00;100876.06;5588784;31;34600;-69
2023/09/28 03:24:27;;;;;;;19.95;8.07;;;;;;;13.89;100.00;100883.88;5589799;31;33948;-69
2023/09/28 03:27:30;;;;;;;14.73;7.72;;;;;;;13.92;100.00;100877.37;5575931;31;33824;-69
2023/09/28 03:30:34;;;;;;;14.10;7.72;;;;;;;13.93;100.00;100890.53;5589648;31;34465;-69
2023/09/28 03:33:37;;;;;;;12.43;7.68;;;;;;;13.83;100.00;100897.94;5589674;31;33944;-69
2023/09/28 03:36:40;;;;;;;15.35;7.62;;;;;;;13.74;100.00;100898.16;5589483;31;33932;-69
2023/09/28 03:39:43;;;;;;;14.20;7.85;;;;;;;13.62;100.00;100897.72;5589609;31;34436;-69
2023/09/28 03:42:50;;;;;;;16.48;7.62;;;;;;;13.52;100.00;100901.59;5589794;31;34326;-67
2023/09/28 03:45:53;;;;;;;12.98;7.82;;;;;;;13.45;100.00;100904.97;5589320;31;33982;-67
2023/09/28 03:48:56;;;;;;;13.07;7.70;;;;;;;13.40;100.00;100904.66;5589539;31;34545;-67
2023/09/28 03:52:02;;;;;;;12.18;8.02;;;;;;;13.37;100.00;100905.00;5589599;31;33846;-68
2023/09/28 03:55:09;;;;;;;12.63;7.70;;;;;;;13.33;100.00;100911.69;5589509;31;33856;-68
2023/09/28 03:58:12;;;;;;;17.40;8.75;;;;;;;13.32;100.00;100912.69;5589494;31;33967;-68
2023/09/28 04:01:16;;;;;;;18.10;8.15;;;;;;;13.26;100.00;100907.22;5589487;31;34499;-68
2023/09/28 04:04:19;;;;;;;12.80;7.68;;;;;;;13.37;100.00;100913.00;5575695;31;33848;-68
2023/09/28 04:07:22;;;;;;;14.40;7.68;;;;;;;13.49;100.00;100910.78;5589257;31;34008;-68
2023/09/28 04:10:26;;;;;;;18.83;8.43;;;;;;;13.37;100.00;100918.31;5589520;31;33768;-68
2023/09/28 04:13:29;;;;;;;14.13;8.13;;;;;;;13.42;100.00;100915.97;5589097;31;34117;-67
2023/09/28 04:16:32;;;;;;;20.98;8.05;;;;;;;13.44;100.00;100918.47;5589511;31;33878;-70
2023/09/28 04:19:35;;;;;;;16.00;7.62;;;;;;;13.57;100.00;100918.75;5589476;31;33871;-68
2023/09/28 04:22:38;;;;;;;13.50;8.13;;;;;;;13.53;100.00;100916.59;5589142;31;33980;-68
2023/09/28 04:25:41;;;;;;;19.60;8.20;;;;;;;13.40;100.00;100919.84;5589140;31;33873;-68
2023/09/28 04:28:44;;;;;;;12.95;7.35;;;;;;;13.42;100.00;100917.81;5589367;31;33894;-68
2023/09/28 04:31:47;;;;;;;17.60;8.15;;;;;;;13.44;100.00;100918.47;5588382;31;33824;-68
2023/09/28 04:34:50;;;;;;;19.08;8.02;;;;;;;13.36;100.00;100923.84;5588934;31;34557;-68
2023/09/28 04:37:52;;;;;;;16.65;8.02;;;;;;;13.28;100.00;100913.19;5588635;31;34542;-68
2023/09/28 04:40:56;;;;;;;14.38;7.82;;;;;;;13.35;100.00;100915.03;5588636;31;33887;-68
2023/09/28 04:43:58;;;;;;;16.20;7.95;;;;;;;13.32;100.00;100923.34;5574845;31;34693;-69
2023/09/28 04:47:02;;;;;;;16.92;8.32;;;;;;;13.26;100.00;100928.53;5574715;31;33761;-68
2023/09/28 04:50:06;;;;;;;14.38;8.38;;;;;;;13.31;100.00;100923.53;5588489;31;33324;-69
2023/09/28 04:53:09;;;;;;;17.15;8.25;;;;;;;13.41;100.00;100924.97;5588612;31;33803;-69
2023/09/28 04:56:12;;;;;;;23.05;8.98;;;;;;;13.32;100.00;100923.34;5588022;31;34542;-68
2023/09/28 04:59:15;;;;;;;17.48;8.57;;;;;;;13.40;100.00;100923.31;5588355;31;33805;-68
2023/09/28 05:02:18;;;;;;;19.75;9.38;;;;;;;13.34;100.00;100933.84;5588597;31;33895;-69
2023/09/28 05:05:22;;;;;;;18.95;9.18;;;;;;;13.38;100.00;100933.31;5588111;31;34872;-69
2023/09/28 05:08:25;;;;;;;15.80;9.05;;;;;;;13.37;100.00;100926.31;5588263;31;34575;-69
2023/09/28 05:11:28;;;;;;;16.67;8.95;;;;;;;13.42;100.00;100931.13;5588095;31;33937;-69
2023/09/28 05:14:31;;;;;;;12.50;8.52;;;;;;;13.48;100.00;100935.78;5587778;31;34706;-69
2023/09/28 05:17:34;;;;;;;15.05;8.43;;;;;;;13.56;100.00;100942.91;5587942;31;33892;-69
2023/09/28 05:20:37;;;;;;;14.23;8.73;;;;;;;13.52;100.00;100939.75;5574330;31;33848;-69
2023/09/28 05:23:42;;;;;;;18.00;8.25;;;;;;;13.61;100.00;100937.88;5587642;31;33761;-69
2023/09/28 05:26:45;;;;;;;16.52;8.52;;;;;;;13.69;100.00;100945.84;5587687;31;33981;-68
2023/09/28 05:29:49;;;;;;;20.95;8.75;;;;;;;13.77;100.00;100945.81;5574223;31;34413;-69
2023/09/28 05:32:51;;;;;;;17.10;8.93;;;;;;;13.84;100.00;100958.28;5573779;31;33789;-68
2023/09/28 05:35:55;;;;;;;13.10;8.70;;;;;;;13.81;100.00;100958.63;5587629;31;34525;-69
2023/09/28 05:38:57;;;;;;;18.55;8.60;;;;;;;13.82;100.00;100954.12;5587566;31;33957;-69
2023/09/28 05:42:01;;;;;;;16.12;8.90;;;;;;;13.88;100.00;100951.59;5587606;31;34487;-69
2023/09/28 05:45:04;;;;;;;17.50;8.90;;;;;;;13.99;100.00;100954.88;5589164;31;34064;-69
2023/09/28 05:48:07;;;;;;;15.90;9.18;;;;;;;14.05;100.00;100954.16;5576119;31;34288;-68
2023/09/28 05:51:10;;;;;;;19.45;9.00;;;;;;;14.20;100.00;100968.38;5589802;31;34003;-68
2023/09/28 05:54:13;;;;;;;16.95;9.27;;;;;;;14.34;100.00;100956.94;5575829;31;33783;-69
2023/09/28 05:57:16;;;;;;;16.73;8.77;;;;;;;14.39;100.00;100957.28;5589977;31;34439;-69
2023/09/28 06:00:19;;;;;;;22.05;9.15;;;;;;;14.48;100.00;100956.19;5576538;31;34595;-68
2023/09/28 06:03:23;;;;;;;21.00;9.30;;;;;;;14.63;100.00;100962.44;5590249;31;34933;-69
2023/09/28 06:06:26;;;;;;;19.02;9.15;;;;;;;14.73;100.00;100965.69;5590060;31;34006;-69
2023/09/28 06:09:29;;;;;;;19.35;9.02;;;;;;;14.84;100.00;100968.94;5590043;31;34092;-69
2023/09/28 06:12:32;;;;;;;21.33;10.07;;;;;;;14.94;100.00;100969.50;5589886;31;33770;-69
2023/09/28 06:15:34;;;;;;;18.05;8.98;;;;;;;15.03;100.00;100971.06;5589863;31;33949;-69
2023/09/28 06:18:39;;;;;;;17.83;8.35;;;;;;;15.12;100.00;100970.81;5576258;31;33922;-69
2023/09/28 06:21:42;;;;;;;22.60;8.63;;;;;;;15.22;100.00;100973.22;5589546;31;33824;-69
2023/09/28 06:24:44;;;;;;;16.50;8.48;;;;;;;15.35;100.00;100978.75;5589459;31;34507;-69
2023/09/28 06:27:47;;;;;;;17.37;8.43;;;;;;;15.57;100.00;100977.88;5589426;31;34506;-71
2023/09/28 06:30:53;;;;;;;17.92;8.63;;;;;;;15.68;100.00;100973.91;5589716;31;34595;-70
2023/09/28 06:33:57;;;;;;;16.40;8.32;;;;;;;15.79;100.00;100972.56;5589327;31;33802;-70
2023/09/28 06:36:59;;;;;;;14.85;8.27;;;;;;;15.86;100.00;100978.84;5589847;31;33886;-70
2023/09/28 06:40:03;;;;;;;15.65;7.97;;;;;;;16.08;100.00;100980.53;5589617;31;33821;-70
2023/09/28 06:43:06;;;;;;;19.15;8.18;;;;;;;16.24;100.00;100980.31;5589820;31;33931;-70
2023/09/28 06:46:09;;;;;;;19.35;8.05;;;;;;;16.13;100.00;100983.47;5589401;31;34147;-70
2023/09/28 06:49:12;;;;;;;20.33;8.20;;;;;;;16.23;100.00;100991.19;5589691;31;33880;-70
2023/09/28 06:52:15;;;;;;;17.80;7.90;;;;;;;16.40;100.00;100992.63;5589956;31;34565;-68
2023/09/28 06:55:18;;;;;;;16.37;7.22;;;;;;;16.42;100.00;100993.25;5589298;31;34457;-69
2023/09/28 06:58:22;;;;;;;19.85;10.15;;;;;;;16.58;100.00;100993.03;5589540;31;33802;-69
2023/09/28 07:01:24;;;;;;;14.27;7.12;;;;;;;16.67;100.00;101004.44;5589537;31;33744;-69
2023/09/28 07:04:29;;;;;;;16.02;7.70;;;;;;;16.69;100.00;101002.41;5589455;31;34524;-70
2023/09/28 07:07:32;;;;;;;18.12;7.47;;;;;;;16.77;100.00;101004.94;5589748;31;35211;-69
2023/09/28 07:10:36;;;;;;;16.42;8.20;;;;;;;16.75;100.00;101007.00;5589481;31;33882;-69
2023/09/28 07:13:38;;;;;;;11.50;7.50;;;;;;;16.92;100.00;101006.53;5589341;31;33801;-69
2023/09/28 07:16:41;;;;;;;13.65;7.12;;;;;;;17.25;100.00;101014.81;5576116;31;33971;-69
2023/09/28 07:19:44;;;;;;;16.02;6.93;;;;;;;17.88;100.00;101018.31;5589903;31;33932;-69
2023/09/28 07:22:48;;;;;;;14.35;6.47;;;;;;;17.97;100.00;101018.97;5589607;31;34358;-69
2023/09/28 07:25:51;;;;;;;13.88;6.62;;;;;;;19.18;100.00;101024.16;5589475;31;33811;-68
2023/09/28 07:28:55;;;;;;;16.45;6.78;;;;;;;20.10;100.00;101015.84;5589288;31;33960;-70
2023/09/28 07:31:58;;;;;;;15.45;6.50;;;;;;;20.86;100.00;101023.94;5589444;31;33900;-70
2023/09/28 07:35:02;;;;;;;17.48;6.30;;;;;;;21.14;96.79;101031.59;5589456;31;33906;-70
2023/09/28 07:38:05;;;;;;;16.05;6.22;;;;;;;22.54;80.65;101036.84;5589313;31;34375;-70
2023/09/28 07:41:09;;;;;;;12.18;5.97;;;;;;;21.88;83.18;101026.03;5589231;31;34569;-70
2023/09/28 07:44:11;;;;;;;19.80;6.10;;;;;;;22.19;84.60;101026.94;5580695;31;258352;-70
2023/09/28 07:47:14;;;;;;;12.70;6.05;;;;;;;23.61;73.43;101032.19;5588657;31;34003;-70
2023/09/28 07:50:18;;;;;;;15.27;6.20;;;;;;;24.84;65.37;101031.59;5589504;31;34417;-71
2023/09/28 07:53:22;;;;;;;17.70;6.53;;;;;;;25.25;63.29;101035.00;5575533;31;33781;-71
2023/09/28 07:56:24;;;;;;;17.80;5.72;;;;;;;26.06;57.96;101028.81;5575722;31;34507;-71
2023/09/28 07:59:27;;;;;;;12.07;5.25;;;;;;;26.92;54.11;101034.34;5589301;31;33884;-71
2023/09/28 08:02:30;;;;;;;14.68;5.37;;;;;;;27.04;51.97;101043.16;5589060;31;33865;-70
2023/09/28 08:05:33;;;;;;;12.98;4.72;;;;;;;27.63;50.64;101035.69;5589175;31;33867;-71
2023/09/28 08:08:37;;;;;;;14.73;5.03;;;;;;;27.33;48.74;101036.28;5589014;31;34693;-71
2023/09/28 08:11:41;;;;;;;17.12;4.93;;;;;;;28.74;46.39;101038.81;5588946;31;33918;-71
2023/09/28 08:14:43;;;;;;;14.02;5.22;;;;;;;28.06;45.83;101035.34;5588855;31;34424;-72
2023/09/28 08:17:47;;;;;;;15.98;5.50;;;;;;;25.39;52.67;101028.97;5574714;31;34021;-71
2023/09/28 08:20:50;;;;;;;12.98;4.97;;;;;;;26.43;51.27;101036.31;5574983;31;34631;-72
2023/09/28 08:24:12;;;;;;;13.07;5.28;;;;;;;25.84;53.03;101028.81;5588655;31;33831;-71
2023/09/28 08:27:15;;;;;;;11.23;4.78;;;;;;;26.74;50.84;101033.63;5588639;31;34187;-73
2023/09/28 08:30:18;;;;;;;14.82;4.87;;;;;;;28.02;47.95;101031.50;5588524;31;34509;-73
2023/09/28 08:33:21;;;;;;;14.32;5.60;;;;;;;27.04;49.47;101030.37;5588392;31;33831;-71
2023/09/28 08:36:24;;;;;;;11.05;4.90;;;;;;;25.53;53.83;101018.56;5588649;31;34498;-72
2023/09/28 08:39:27;;;;;;;17.65;5.18;;;;;;;27.56;49.75;101022.28;5588879;31;33751;-73
2023/09/28 08:42:31;;;;;;;13.15;5.55;;;;;;;25.00;55.18;101011.00;5588797;31;33800;-72
2023/09/28 08:45:38;;;;;;;9.18;5.05;;;;;;;23.94;60.66;101011.72;5588195;31;33860;-71
2023/09/28 08:48:47;;;;;;;14.13;5.43;;;;;;;23.03;66.83;101015.91;5588299;31;34272;-71
2023/09/28 08:51:52;;;;;;;18.37;5.50;;;;;;;22.31;76.76;101007.03;5587960;31;33804;-71
2023/09/28 08:54:56;;;;;;;15.10;6.20;;;;;;;21.55;84.03;101001.28;5588385;31;34052;-71
2023/09/28 08:57:59;;;;;;;15.65;5.60;;;;;;;21.05;92.59;101004.06;5587939;31;33785;-70
2023/09/28 09:01:03;;;;;;;29.58;6.45;;;;;;;20.95;96.44;101006.41;5587999;31;34038;-71
2023/09/28 09:04:07;;;;;;;16.42;5.97;;;;;;;21.10;99.58;100998.81;5587859;31;33941;-71
2023/09/28 09:07:11;;;;;;;15.73;5.80;;;;;;;21.03;95.40;100997.22;5588060;31;33865;-70
2023/09/28 09:10:20;;;;;;;16.37;6.03;;;;;;;20.80;97.71;100998.66;5587856;31;34685;-70
2023/09/28 09:13:23;;;;;;;16.58;6.28;;;;;;;20.83;93.43;101000.06;5587841;31;34427;-71
2023/09/28 09:16:28;;;;;;;15.02;5.72;;;;;;;20.79;100.00;100999.69;5587402;31;34511;-70
2023/09/28 09:19:32;;;;;;;20.30;6.35;;;;;;;20.82;96.50;101001.09;5575542;31;34892;-70
2023/09/28 09:22:35;;;;;;;15.45;5.78;;;;;;;20.89;92.05;100995.69;5590391;31;33786;-70
2023/09/28 09:25:54;;;;;;;13.20;5.70;;;;;;;20.97;92.30;100996.22;5590016;31;34850;-70
2023/09/28 09:28:58;;;;;;;14.13;5.70;;;;;;;21.05;91.33;100985.16;5590326;31;33916;-70
2023/09/28 09:32:05;;;;;;;11.60;5.95;;;;;;;21.13;88.28;100987.59;5589948;31;33866;-70
2023/09/28 09:35:10;;;;;;;16.70;5.70;;;;;;;21.17;90.07;100985.28;5576648;31;33764;-70
2023/09/28 09:38:14;;;;;;;10.55;5.28;;;;;;;21.27;92.62;100992.87;5576474;31;34498;-70
2023/09/28 09:41:17;;;;;;;16.35;5.78;;;;;;;21.38;88.81;100984.03;5590284;31;33914;-70
2023/09/28 09:44:24;;;;;;;18.08;5.97;;;;;;;21.44;88.20;100981.28;5589832;31;34075;-71
2023/09/28 09:47:27;;;;;;;17.92;5.70;;;;;;;21.51;87.71;100975.78;5589990;31;34545;-69
2023/09/28 09:50:32;;;;;;;15.98;5.45;;;;;;;21.55;86.23;100974.28;5578085;31;35136;-70
2023/09/28 09:53:41;;;;;;;12.80;5.43;;;;;;;21.80;82.50;100979.59;5590990;31;33873;-72
2023/09/28 09:56:48;;;;;;;;;;;;;;;21.88;83.85;100974.69;5578018;31;34082;-71
2023/09/28 09:59:53;;;;;;;18.23;5.37;;;;;;;22.03;83.38;100972.47;5590349;31;34234;-72
2023/09/28 10:03:00;;;;;;;14.60;5.53;;;;;;;22.07;80.48;100975.56;5590140;31;35348;-71
2023/09/28 10:06:04;;;;;;;17.52;5.55;;;;;;;22.19;84.25;100978.28;5590057;31;33795;-71
2023/09/28 10:09:10;;;;;;;13.27;5.43;;;;;;;22.40;83.55;100975.06;5590183;31;35017;-70
2023/09/28 10:12:15;;;;;;;13.88;5.03;;;;;;;22.49;77.96;100973.69;5576403;31;33834;-70
2023/09/28 10:15:18;;;;;;;12.98;5.10;;;;;;;22.36;81.37;100966.63;5590001;31;34504;-69
2023/09/28 10:18:22;;;;;;;22.50;5.68;;;;;;;22.58;78.74;100968.75;5590227;31;33800;-71
2023/09/28 10:21:25;;;;;;;10.93;5.37;;;;;;;22.66;75.69;100963.00;5590008;31;34722;-71
2023/09/28 10:24:31;;;;;;;14.77;5.32;;;;;;;22.75;72.95;100967.88;5590069;31;33905;-69
2023/09/28 10:27:36;;;;;;;12.27;5.10;;;;;;;22.99;74.61;100959.78;5576237;31;33914;-70
2023/09/28 10:30:39;;;;;;;15.45;5.35;;;;;;;23.12;74.57;100962.25;5576263;31;34490;-71
2023/09/28 10:33:58;;;;;;;17.12;5.85;;;;;;;23.21;77.23;100960.84;5589918;31;33029;-72
2023/09/28 10:37:10;;;;;;;12.60;5.43;;;;;;;23.36;75.49;100953.88;5589755;31;33963;-71
2023/09/28 10:40:16;;;;;;;11.55;5.00;;;;;;;23.32;75.40;100957.31;5589391;31;33987;-70
2023/09/28 10:43:40;;;;;;;16.37;5.53;;;;;;;23.60;71.04;100957.41;5589800;31;33782;-70
2023/09/28 10:46:44;;;;;;;13.05;5.50;;;;;;;23.65;68.80;100953.97;5589658;31;34892;-70
2023/09/28 10:49:49;;;;;;;12.98;5.47;;;;;;;23.73;67.83;100953.56;5589699;31;34424;-71
2023/09/28 10:52:53;;;;;;;15.10;5.03;;;;;;;26.36;60.49;100953.00;5575641;31;33921;-71
2023/09/28 10:55:56;;;;;;;17.90;5.10;;;;;;;30.86;45.36;100963.31;5589902;31;33894;-72
2023/09/28 10:59:01;;;;;;;23.55;5.20;;;;;;;34.18;36.97;100959.44;5589461;31;34077;-71
2023/09/28 11:02:04;;;;;;;11.93;4.62;;;;;;;35.69;33.66;100962.87;5589306;31;33636;-72
2023/09/28 11:05:09;;;;;;;9.95;4.47;;;;;;;36.53;31.12;100959.69;5589801;31;33740;-71
2023/09/28 11:08:14;;;;;;;16.15;4.82;;;;;;;37.97;29.03;100961.41;5590010;31;33983;-72
2023/09/28 11:11:21;;;;;;;14.38;4.75;;;;;;;38.46;27.80;100956.16;5589377;31;33938;-72
2023/09/28 11:14:25;;;;;;;15.30;5.30;;;;;;;39.76;25.76;100954.25;5589716;31;33809;-72
2023/09/28 11:17:29;;;;;;;16.10;4.35;;;;;;;39.66;25.68;100954.69;5589425;31;33964;-72
2023/09/28 11:20:33;;;;;;;13.55;4.93;;;;;;;37.47;27.55;100941.19;5575513;31;34526;-72
2023/09/28 11:23:35;;;;;;;11.07;4.53;;;;;;;37.92;27.20;100933.09;5575647;31;35450;-72
2023/09/28 11:26:39;;;;;;;13.05;4.35;;;;;;;38.56;26.88;100936.31;5589310;31;33787;-72
2023/09/28 11:29:43;;;;;;;9.95;3.95;;;;;;;41.35;24.59;100938.37;5575607;31;34046;-72
2023/09/28 11:32:49;;;;;;;10.77;4.00;;;;;;;41.68;22.84;100945.56;5589433;31;33784;-72
2023/09/28 11:35:52;;;;;;;13.62;3.90;;;;;;;42.02;21.24;100930.81;5591337;31;34436;-72
2023/09/28 11:38:55;;;;;;;9.98;4.15;;;;;;;43.34;20.24;100926.44;5589148;31;33948;-72
2023/09/28 11:42:00;;;;;;;9.60;3.80;;;;;;;45.54;19.31;100932.53;5588247;31;33784;-73
2023/09/28 11:45:04;;;;;;;8.90;3.60;;;;;;;41.57;21.66;100921.03;5588981;31;33800;-72
2023/09/28 11:48:11;;;;;;;13.38;3.83;;;;;;;38.51;23.65;100917.12;5575463;31;33780;-73
2023/09/28 11:51:15;;;;;;;6.68;3.53;;;;;;;42.40;20.76;100916.84;5589144;31;34620;-73
2023/09/28 11:54:20;;;;;;;8.52;3.45;;;;;;;39.32;22.98;100908.81;5589031;31;34126;-73
2023/09/28 11:57:23;;;;;;;9.98;3.58;;;;;;;42.96;19.42;100907.06;5575341;31;34906;-73
2023/09/28 12:00:26;;;;;;;13.52;4.28;;;;;;;39.63;22.32;100907.38;5589222;31;33839;-73
2023/09/28 12:03:29;;;;;;;8.88;3.80;;;;;;;42.42;21.70;100908.09;5589200;31;34905;-73
2023/09/28 12:06:32;;;;;;;13.57;3.78;;;;;;;44.44;19.06;100914.78;5589354;31;34374;-73
2023/09/28 12:09:36;;;;;;;7.53;3.50;;;;;;;43.50;19.77;100907.56;5589160;31;34044;-72
2023/09/28 12:12:39;;;;;;;11.40;3.97;;;;;;;46.12;17.15;100906.34;5589222;31;33900;-73
2023/09/28 12:15:42;;;;;;;10.95;3.78;;;;;;;46.27;17.17;100899.62;5575432;31;34490;-73
2023/09/28 12:18:46;;;;;;;11.45;3.50;;;;;;;45.34;17.84;100895.53;5589070;31;34695;-73
2023/09/28 12:21:51;;;;;;;11.48;3.87;;;;;;;46.24;16.74;100900.38;5589032;31;34555;-73
2023/09/28 12:24:55;;;;;;;25.02;3.78;;;;;;;44.49;18.03;100891.22;5588848;31;35167;-72
2023/09/28 12:27:58;;;;;;;13.52;3.70;;;;;;;42.81;18.87;100892.88;5588844;31;33781;-72
2023/09/28 12:31:03;;;;;;;12.37;4.20;;;;;;;42.71;18.62;100889.91;5588813;31;33972;-72
2023/09/28 12:34:06;;;;;;;11.75;4.40;;;;;;;41.39;20.17;100883.59;5588795;31;33800;-72
2023/09/28 12:37:09;;;;;;;10.60;4.00;;;;;;;42.08;20.13;100885.50;5574721;31;34184;-72
2023/09/28 12:40:13;;;;;;;8.35;3.45;;;;;;;43.48;18.84;100884.78;5588667;31;34530;-72
2023/09/28 12:43:16;;;;;;;19.02;4.18;;;;;;;42.03;20.55;100883.03;5575033;31;34541;-72
2023/09/28 12:46:19;;;;;;;12.35;3.83;;;;;;;41.75;20.66;100876.84;5588592;31;33807;-72
2023/09/28 12:49:22;;;;;;;11.65;3.92;;;;;;;42.63;19.07;100872.22;5588453;31;33957;-72
2023/09/28 12:52:26;;;;;;;10.10;3.83;;;;;;;36.74;24.59;100861.13;5589901;31;34856;-72
2023/09/28 12:55:29;;;;;;;15.27;4.10;;;;;;;38.82;23.03;100861.13;5594668;31;33836;-72
2023/09/28 12:58:33;;;;;;;9.75;3.62;;;;;;;36.79;25.31;100854.59;5595066;31;33769;-72
2023/09/28 13:01:35;;;;;;;6.53;3.78;;;;;;;33.41;28.05;100849.34;5594785;31;33984;-72
2023/09/28 13:04:38;;;;;;;14.13;4.10;;;;;;;31.58;31.43;100843.53;5594663;31;33874;-71
2023/09/28 13:07:42;;;;;;;17.37;4.35;;;;;;;31.26;30.49;100835.19;5594881;31;32689;-71
2023/09/28 13:10:45;;;;;;;9.98;4.10;;;;;;;31.35;32.57;100831.47;5594730;31;33902;-71
2023/09/28 13:13:48;;;;;;;11.30;4.03;;;;;;;30.49;33.72;100837.13;5594704;31;33826;-71
2023/09/28 13:16:52;;;;;;;10.80;4.00;;;;;;;29.62;35.00;100827.91;5580667;31;33785;-72
2023/09/28 13:19:55;;;;;;;11.95;3.97;;;;;;;29.70;32.46;100832.78;5580720;31;34852;-71
2023/09/28 13:22:59;;;;;;;11.10;4.10;;;;;;;28.63;35.44;100828.81;5594707;31;34407;-71
2023/09/28 13:26:04;;;;;;;8.93;4.07;;;;;;;28.70;36.01;100827.44;5594193;31;34760;-70
2023/09/28 13:29:07;;;;;;;13.75;4.15;;;;;;;28.65;34.14;100819.25;5594340;31;34489;-71
2023/09/28 13:32:13;;;;;;;17.02;4.75;;;;;;;27.94;36.00;100822.00;5580409;31;34504;-71
2023/09/28 13:35:16;;;;;;;11.52;4.22;;;;;;;28.35;35.65;100824.75;5580452;31;33889;-71
2023/09/28 13:38:19;;;;;;;12.27;4.37;;;;;;;28.72;34.67;100813.53;5594155;31;34581;-71
2023/09/28 13:41:29;;;;;;;9.80;4.37;;;;;;;28.96;35.10;100817.25;5593803;31;33914;-71
2023/09/28 13:44:33;;;;;;;13.05;4.70;;;;;;;28.85;34.30;100811.00;5593382;31;33852;-71
2023/09/28 13:47:36;;;;;;;10.77;4.70;;;;;;;29.91;34.82;100815.16;5593576;31;33887;-72
2023/09/28 13:50:39;;;;;;;15.40;5.22;;;;;;;29.83;35.98;100815.72;5579317;31;33878;-71
2023/09/28 13:53:43;;;;;;;57.72;7.78;;;;;;;28.22;37.86;100809.78;5579814;31;33908;-71
2023/09/28 13:56:47;;;;;;;24.02;6.05;;;;;;;28.51;38.88;100808.06;5593145;31;34828;-70
2023/09/28 13:59:53;;;;;;;8.57;4.72;;;;;;;28.76;38.57;100809.97;5593168;31;34863;-71
2023/09/28 14:02:58;;;;;;;11.93;4.82;;;;;;;28.81;37.83;100804.47;5579655;31;35323;-70